Historyczne dane pomiarowe

Dodano dane terminowe – wersja testowa.

Dane z okresu 1951-2019

Wersja bazy: 1.34 [2019-03-16, lista zmian], aktualizacja planowana na 2019-04-15

Dane meteo z obszaru Polski uzyskane na podstawie danych udostępnionych przez Instytut Meteorologii i Gospodarki Wodnej – Państwowy Instytut Badawczy.

 

Wybierz Datę:    

       

TemperaturaWilgotnośćZachmurzenieWiatrCiśnienieWidzialnośćZjawiska
 Data    tng td wb rh cc ccl cl cm ch dir g1 g2 mslp ppp      
1999-06-18 00:00:00 16.3--- 16.0 16.198wxwxwx2wx--1012.3 990.4 4.9---wx
1999-06-18 01:00:00 16.0--- 15.7 15.898wxwxwx1wx--1012.3 990.3----wxw1
1999-06-18 02:00:00 16.1--- 15.8 15.998wxwxwx3wx--1011.8 989.9----wx
1999-06-18 03:00:00 16.5--- 16.0 16.297wxwxwx3wx--1011.5 989.6----wxw1
1999-06-18 04:00:00 16.8--- 16.3 16.597wxwxwx2wx--1011.7 989.8----wx
1999-06-18 05:00:00 17.3--- 16.7 16.996wxwxwx1wx--1012.1 990.2----wx
1999-06-18 06:00:00 17.5--- 16.9 17.196wxwxwx1wx--1012.5 990.7 2.1---wxw1
1999-06-18 07:00:00 17.3--- 16.5 16.895wxwxwx2wx--1012.9 991.0----wx
1999-06-18 08:00:00 18.9--- 17.2 17.890wxwxwxwx2wx--1013.1 991.3----wx
1999-06-18 09:00:00 20.0--- 17.1 18.183wxwxwx1wx--1013.3 991.6----wxw1
1999-06-18 10:00:00 20.9--- 16.9 18.378wxwxwxwx2wx--1013.2 991.6----wx
1999-06-18 11:00:00 22.3--- 17.4 19.174wxwxwxwx2wx--1013.1 991.6----wx
1999-06-18 12:00:00 23.1--- 17.5 19.471wxwxwxwx1wx--1012.8 991.4 0.0---wxw1
1999-06-18 13:00:00 23.5--- 17.9 19.871wxwxwxwxwx3wx--1012.6 991.2----wx
1999-06-18 14:00:00 23.9--- 18.0 20.070wxwxwxwx3wx--1012.4 991.0----wx
1999-06-18 15:00:00 23.1--- 18.1 19.874wxwxwxwx4wx--1012.3 990.9----wx
1999-06-18 16:00:00 23.0--- 18.5 20.076wxwxwx5wx--1012.6 991.2----wx
1999-06-18 17:00:00 20.8--- 16.8 18.278wxwxwx3wx--1013.7 992.1----wxw1
1999-06-18 18:00:00 19.6--- 17.4 18.287wxwxwx2wx--1014.0 992.3 1.3---wxw1
1999-06-18 19:00:00 18.1--- 16.4 17.090wxwxwxwx1wx--1013.9 992.1----wxw1
1999-06-18 20:00:00 18.0--- 16.4 17.091wxwxwxwx2wx--1014.7 992.8----wx
1999-06-18 21:00:00 17.5--- 16.1 16.691wxwxwx2wx--1014.7 992.8----wxw1
1999-06-18 22:00:00 18.0--- 16.4 17.091wxwxwx2wx--1014.7 992.8----wx
1999-06-18 23:00:00 18.0--- 16.4 17.091wxwx2wx--1014.9 993.0----wx

 

Źródłem pochodzenia danych jest Instytut Meteorologii i Gospodarki Wodnej – Państwowy Instytut Badawczy. Dane Instytutu Meteorologii i Gospodarki Wodnej – Państwowego Instytutu Badawczego zostały przetworzone.

Dane źródłowe można odnaleźć na stronie https://dane.imgw.pl